sensor_id;sensor_type;location;lat;lon;timestamp;pressure;altitude;pressure_sealevel;temperature;humidity
30897;BME280;64229;52.246;21.054;2023-01-28T00:01:39;101310.94;;;1.13;93.35
30897;BME280;64229;52.246;21.054;2023-01-28T00:04:05;101314.38;;;1.13;94.35
30897;BME280;64229;52.246;21.054;2023-01-28T00:06:30;101296.84;;;1.06;94.26
30897;BME280;64229;52.246;21.054;2023-01-28T00:08:56;101308.66;;;1.10;94.22
30897;BME280;64229;52.246;21.054;2023-01-28T00:11:21;101301.78;;;1.09;95.52
30897;BME280;64229;52.246;21.054;2023-01-28T00:13:51;101311.38;;;1.16;95.03
30897;BME280;64229;52.246;21.054;2023-01-28T00:16:17;101313.13;;;1.24;94.26
30897;BME280;64229;52.246;21.054;2023-01-28T00:18:42;101310.94;;;1.13;94.29
30897;BME280;64229;52.246;21.054;2023-01-28T00:21:13;101319.56;;;1.22;95.89
30897;BME280;64229;52.246;21.054;2023-01-28T00:23:40;101311.13;;;1.26;95.16
30897;BME280;64229;52.246;21.054;2023-01-28T00:26:11;101316.31;;;1.34;94.26
30897;BME280;64229;52.246;21.054;2023-01-28T00:28:36;101310.69;;;1.37;93.81
30897;BME280;64229;52.246;21.054;2023-01-28T00:31:13;101311.38;;;1.39;93.55
30897;BME280;64229;52.246;21.054;2023-01-28T00:33:40;101315.34;;;1.35;93.72
30897;BME280;64229;52.246;21.054;2023-01-28T00:36:06;101313.69;;;1.34;95.55
30897;BME280;64229;52.246;21.054;2023-01-28T00:38:32;101315.50;;;1.34;94.71
30897;BME280;64229;52.246;21.054;2023-01-28T00:41:13;101317.63;;;1.38;94.26
30897;BME280;64229;52.246;21.054;2023-01-28T00:43:39;101313.81;;;1.41;94.55
30897;BME280;64229;52.246;21.054;2023-01-28T00:46:06;101311.81;;;1.43;94.67
30897;BME280;64229;52.246;21.054;2023-01-28T00:48:33;101315.06;;;1.45;93.98
30897;BME280;64229;52.246;21.054;2023-01-28T00:50:59;101311.25;;;1.48;94.21
30897;BME280;64229;52.246;21.054;2023-01-28T00:53:25;101308.28;;;1.51;94.20
30897;BME280;64229;52.246;21.054;2023-01-28T00:55:51;101308.47;;;1.49;93.93
30897;BME280;64229;52.246;21.054;2023-01-28T00:58:17;101302.03;;;1.52;94.51
30897;BME280;64229;52.246;21.054;2023-01-28T01:00:43;101305.38;;;1.45;94.34
30897;BME280;64229;52.246;21.054;2023-01-28T01:03:09;101305.00;;;1.49;93.34
30897;BME280;64229;52.246;21.054;2023-01-28T01:05:34;101307.47;;;1.50;94.93
30897;BME280;64229;52.246;21.054;2023-01-28T01:08:00;101304.03;;;1.50;94.62
30897;BME280;64229;52.246;21.054;2023-01-28T01:10:26;101300.66;;;1.56;93.65
30897;BME280;64229;52.246;21.054;2023-01-28T01:12:51;101309.84;;;1.60;94.34
30897;BME280;64229;52.246;21.054;2023-01-28T01:15:17;101312.72;;;1.65;94.55
30897;BME280;64229;52.246;21.054;2023-01-28T01:17:46;101303.41;;;1.62;92.35
30897;BME280;64229;52.246;21.054;2023-01-28T01:20:14;101310.66;;;1.60;92.99
30897;BME280;64229;52.246;21.054;2023-01-28T01:22:41;101310.66;;;1.60;92.75
30897;BME280;64229;52.246;21.054;2023-01-28T01:25:07;101306.38;;;1.59;93.04
30897;BME280;64229;52.246;21.054;2023-01-28T01:27:33;101306.03;;;1.62;93.16
30897;BME280;64229;52.246;21.054;2023-01-28T01:29:58;101296.84;;;1.58;92.84
30897;BME280;64229;52.246;21.054;2023-01-28T01:32:27;101302.56;;;1.62;92.45
30897;BME280;64229;52.246;21.054;2023-01-28T01:34:53;101303.59;;;1.61;92.27
30897;BME280;64229;52.246;21.054;2023-01-28T01:37:19;101294.69;;;1.62;94.22
30897;BME280;64229;52.246;21.054;2023-01-28T01:39:44;101297.50;;;1.60;94.29
30897;BME280;64229;52.246;21.054;2023-01-28T01:42:12;101304.22;;;1.63;92.54
30897;BME280;64229;52.246;21.054;2023-01-28T01:47:12;101309.47;;;1.63;92.42
30897;BME280;64229;52.246;21.054;2023-01-28T01:49:38;101306.22;;;1.61;92.84
30897;BME280;64229;52.246;21.054;2023-01-28T01:52:10;101302.41;;;1.63;92.09
30897;BME280;64229;52.246;21.054;2023-01-28T01:54:38;101310.56;;;1.68;93.10
30897;BME280;64229;52.246;21.054;2023-01-28T01:57:06;101307.91;;;1.68;92.08
30897;BME280;64229;52.246;21.054;2023-01-28T01:59:34;101303.47;;;1.69;91.49
30897;BME280;64229;52.246;21.054;2023-01-28T02:02:02;101304.22;;;1.63;92.17
30897;BME280;64229;52.246;21.054;2023-01-28T02:04:41;101302.91;;;1.59;93.12
30897;BME280;64229;52.246;21.054;2023-01-28T02:07:11;101305.66;;;1.65;93.06
30897;BME280;64229;52.246;21.054;2023-01-28T02:09:37;101302.03;;;1.66;91.78
30897;BME280;64229;52.246;21.054;2023-01-28T02:12:16;101310.56;;;1.68;92.27
30897;BME280;64229;52.246;21.054;2023-01-28T02:14:53;101311.38;;;1.69;92.21
30897;BME280;64229;52.246;21.054;2023-01-28T02:17:20;101310.56;;;1.68;92.72
30897;BME280;64229;52.246;21.054;2023-01-28T02:19:58;101306.84;;;1.63;91.88
30897;BME280;64229;52.246;21.054;2023-01-28T02:22:55;101308.47;;;1.64;92.13
30897;BME280;64229;52.246;21.054;2023-01-28T02:31:02;101303.75;;;1.59;93.36
30897;BME280;64229;52.246;21.054;2023-01-28T02:33:36;101315.56;;;1.63;92.73
30897;BME280;64229;52.246;21.054;2023-01-28T02:38:51;101312.56;;;1.66;92.89
30897;BME280;64229;52.246;21.054;2023-01-28T02:41:23;101317.81;;;1.66;93.54
30897;BME280;64229;52.246;21.054;2023-01-28T02:43:50;101311.00;;;1.57;94.59
30897;BME280;64229;52.246;21.054;2023-01-28T02:49:35;101311.22;;;1.70;93.92
30897;BME280;64229;52.246;21.054;2023-01-28T02:54:53;101312.28;;;1.76;92.57
30897;BME280;64229;52.246;21.054;2023-01-28T02:57:37;101311.47;;;1.76;92.05
30897;BME280;64229;52.246;21.054;2023-01-28T03:00:27;101317.28;;;1.71;92.30
30897;BME280;64229;52.246;21.054;2023-01-28T03:05:34;101327.00;;;1.70;92.48
30897;BME280;64229;52.246;21.054;2023-01-28T03:08:03;101319.00;;;1.64;91.99
30897;BME280;64229;52.246;21.054;2023-01-28T03:10:52;101323.00;;;1.60;93.70
30897;BME280;64229;52.246;21.054;2023-01-28T03:13:38;101322.72;;;1.55;92.98
30897;BME280;64229;52.246;21.054;2023-01-28T03:16:23;101310.25;;;1.49;92.92
30897;BME280;64229;52.246;21.054;2023-01-28T03:19:09;101317.63;;;1.53;93.42
30897;BME280;64229;52.246;21.054;2023-01-28T03:21:55;101319.06;;;1.56;93.70
30897;BME280;64229;52.246;21.054;2023-01-28T03:24:47;101317.56;;;1.61;93.14
30897;BME280;64229;52.246;21.054;2023-01-28T03:27:52;101319.00;;;1.64;93.34
30897;BME280;64229;52.246;21.054;2023-01-28T03:30:42;101310.47;;;1.62;92.90
30897;BME280;64229;52.246;21.054;2023-01-28T03:33:28;101314.38;;;1.51;93.70
30897;BME280;64229;52.246;21.054;2023-01-28T03:36:14;101319.19;;;1.62;93.11
30897;BME280;64229;52.246;21.054;2023-01-28T03:38:58;101317.81;;;1.66;94.50
30897;BME280;64229;52.246;21.054;2023-01-28T03:41:25;101315.28;;;1.73;92.73
30897;BME280;64229;52.246;21.054;2023-01-28T03:43:51;101316.91;;;1.74;91.79
30897;BME280;64229;52.246;21.054;2023-01-28T03:46:17;101308.41;;;1.72;93.05
30897;BME280;64229;52.246;21.054;2023-01-28T03:48:43;101319.72;;;1.72;92.10
30897;BME280;64229;52.246;21.054;2023-01-28T03:51:09;101321.38;;;1.73;92.64
30897;BME280;64229;52.246;21.054;2023-01-28T03:53:34;101329.25;;;1.73;93.11
30897;BME280;64229;52.246;21.054;2023-01-28T03:56:00;101321.19;;;1.60;93.74
30897;BME280;64229;52.246;21.054;2023-01-28T03:58:25;101321.06;;;1.68;94.53
30897;BME280;64229;52.246;21.054;2023-01-28T04:01:04;101316.91;;;1.74;94.51
30897;BME280;64229;52.246;21.054;2023-01-28T04:03:30;101303.13;;;1.72;92.27
30897;BME280;64229;52.246;21.054;2023-01-28T04:06:03;101316.34;;;1.79;92.36
30897;BME280;64229;52.246;21.054;2023-01-28T04:08:29;101302.31;;;1.71;91.89
30897;BME280;64229;52.246;21.054;2023-01-28T04:10:55;101321.28;;;1.82;92.21
30897;BME280;64229;52.246;21.054;2023-01-28T04:13:21;101320.47;;;1.81;91.04
30897;BME280;64229;52.246;21.054;2023-01-28T04:15:47;101317.09;;;1.72;92.58
30897;BME280;64229;52.246;21.054;2023-01-28T04:18:13;101318.44;;;1.68;92.59
30897;BME280;64229;52.246;21.054;2023-01-28T04:20:38;101321.88;;;1.69;92.29
30897;BME280;64229;52.246;21.054;2023-01-28T04:23:04;101317.09;;;1.72;91.42
30897;BME280;64229;52.246;21.054;2023-01-28T04:25:30;101313.66;;;1.72;91.58
30897;BME280;64229;52.246;21.054;2023-01-28T04:27:56;101313.84;;;1.70;91.73
30897;BME280;64229;52.246;21.054;2023-01-28T04:30:22;101317.44;;;1.69;92.17
30897;BME280;64229;52.246;21.054;2023-01-28T04:32:48;101317.19;;;1.64;92.24
30897;BME280;64229;52.246;21.054;2023-01-28T04:35:17;101328.72;;;1.63;92.34
30897;BME280;64229;52.246;21.054;2023-01-28T04:37:43;101328.06;;;1.61;91.84
30897;BME280;64229;52.246;21.054;2023-01-28T04:40:10;101321.53;;;1.57;92.65
30897;BME280;64229;52.246;21.054;2023-01-28T04:42:35;101322.16;;;1.59;93.93
30897;BME280;64229;52.246;21.054;2023-01-28T04:45:01;101312.19;;;1.55;92.64
30897;BME280;64229;52.246;21.054;2023-01-28T04:47:26;101326.16;;;1.55;92.99
30897;BME280;64229;52.246;21.054;2023-01-28T04:49:52;101331.88;;;1.59;92.53
30897;BME280;64229;52.246;21.054;2023-01-28T04:52:17;101329.72;;;1.62;93.76
30897;BME280;64229;52.246;21.054;2023-01-28T04:54:43;101332.34;;;1.62;92.74
30897;BME280;64229;52.246;21.054;2023-01-28T04:57:08;101327.41;;;1.59;92.72
30897;BME280;64229;52.246;21.054;2023-01-28T04:59:34;101329.53;;;1.64;92.41
30897;BME280;64229;52.246;21.054;2023-01-28T05:01:59;101324.78;;;1.59;92.76
30897;BME280;64229;52.246;21.054;2023-01-28T05:04:25;101339.25;;;1.63;92.83
30897;BME280;64229;52.246;21.054;2023-01-28T05:06:50;101337.88;;;1.67;92.87
30897;BME280;64229;52.246;21.054;2023-01-28T05:09:16;101330.97;;;1.66;91.81
30897;BME280;64229;52.246;21.054;2023-01-28T05:11:41;101336.88;;;1.68;92.30
30897;BME280;64229;52.246;21.054;2023-01-28T05:14:07;101334.16;;;1.62;91.99
30897;BME280;64229;52.246;21.054;2023-01-28T05:16:33;101336.22;;;1.66;92.10
30897;BME280;64229;52.246;21.054;2023-01-28T05:19:00;101328.72;;;1.63;92.07
30897;BME280;64229;52.246;21.054;2023-01-28T05:21:26;101331.97;;;1.65;91.74
30897;BME280;64229;52.246;21.054;2023-01-28T05:23:51;101332.16;;;1.64;91.41
30897;BME280;64229;52.246;21.054;2023-01-28T05:26:17;101335.50;;;1.58;92.09
30897;BME280;64229;52.246;21.054;2023-01-28T05:28:42;101339.59;;;1.60;91.84
30897;BME280;64229;52.246;21.054;2023-01-28T05:31:09;101340.31;;;1.54;92.08
30897;BME280;64229;52.246;21.054;2023-01-28T05:33:35;101330.34;;;1.50;93.09
30897;BME280;64229;52.246;21.054;2023-01-28T05:36:01;101341.94;;;1.55;92.92
30897;BME280;64229;52.246;21.054;2023-01-28T05:38:27;101320.53;;;1.43;92.61
30897;BME280;64229;52.246;21.054;2023-01-28T05:40:52;101338.03;;;1.51;93.07
30897;BME280;64229;52.246;21.054;2023-01-28T05:43:18;101344.75;;;1.54;93.07
30897;BME280;64229;52.246;21.054;2023-01-28T05:45:43;101346.19;;;1.56;92.61
30897;BME280;64229;52.246;21.054;2023-01-28T05:48:09;101343.94;;;1.53;92.62
30897;BME280;64229;52.246;21.054;2023-01-28T05:50:34;101345.31;;;1.64;92.35
30897;BME280;64229;52.246;21.054;2023-01-28T05:53:00;101349.94;;;1.62;92.32
30897;BME280;64229;52.246;21.054;2023-01-28T05:55:25;101350.28;;;1.59;92.34
30897;BME280;64229;52.246;21.054;2023-01-28T05:57:51;101351.28;;;1.58;93.13
30897;BME280;64229;52.246;21.054;2023-01-28T06:00:17;101339.19;;;1.49;94.34
30897;BME280;64229;52.246;21.054;2023-01-28T06:02:42;101351.09;;;1.59;93.46
30897;BME280;64229;52.246;21.054;2023-01-28T06:05:08;101344.56;;;1.55;93.99
30897;BME280;64229;52.246;21.054;2023-01-28T06:07:34;101348.84;;;1.56;95.09
30897;BME280;64229;52.246;21.054;2023-01-28T06:10:00;101349.75;;;1.63;93.52
30897;BME280;64229;52.246;21.054;2023-01-28T06:12:25;101357.28;;;1.66;94.23
30897;BME280;64229;52.246;21.054;2023-01-28T06:14:51;101362.38;;;1.68;93.56
30897;BME280;64229;52.246;21.054;2023-01-28T06:17:16;101364.00;;;1.69;93.10
30897;BME280;64229;52.246;21.054;2023-01-28T06:19:42;101367.63;;;1.68;93.43
30897;BME280;64229;52.246;21.054;2023-01-28T06:22:08;101368.44;;;1.68;94.08
30897;BME280;64229;52.246;21.054;2023-01-28T06:24:34;101359.47;;;1.63;93.40
30897;BME280;64229;52.246;21.054;2023-01-28T06:26:59;101366.38;;;1.64;94.75
30897;BME280;64229;52.246;21.054;2023-01-28T06:29:25;101362.47;;;1.60;93.91
30897;BME280;64229;52.246;21.054;2023-01-28T06:31:50;101371.19;;;1.60;93.94
30897;BME280;64229;52.246;21.054;2023-01-28T06:34:16;101374.78;;;1.59;94.07
30897;BME280;64229;52.246;21.054;2023-01-28T06:36:41;101373.53;;;1.55;94.02
30897;BME280;64229;52.246;21.054;2023-01-28T06:39:07;101363.25;;;1.45;94.75
30897;BME280;64229;52.246;21.054;2023-01-28T06:41:32;101373.06;;;1.52;95.11
30897;BME280;64229;52.246;21.054;2023-01-28T06:43:58;101381.28;;;1.49;94.88
30897;BME280;64229;52.246;21.054;2023-01-28T06:46:23;101384.03;;;1.40;95.62
30897;BME280;64229;52.246;21.054;2023-01-28T06:48:49;101382.84;;;1.43;96.15
30897;BME280;64229;52.246;21.054;2023-01-28T06:51:14;101378.84;;;1.47;96.48
30897;BME280;64229;52.246;21.054;2023-01-28T06:53:40;101380.97;;;1.52;97.05
30897;BME280;64229;52.246;21.054;2023-01-28T06:56:06;101384.34;;;1.60;96.32
30897;BME280;64229;52.246;21.054;2023-01-28T06:58:33;101380.72;;;1.61;95.19
30897;BME280;64229;52.246;21.054;2023-01-28T07:00:59;101386.16;;;1.60;96.17
30897;BME280;64229;52.246;21.054;2023-01-28T07:03:24;101392.38;;;1.59;96.96
30897;BME280;64229;52.246;21.054;2023-01-28T07:05:50;101394.88;;;1.60;95.87
30897;BME280;64229;52.246;21.054;2023-01-28T07:08:16;101397.94;;;1.64;95.23
30897;BME280;64229;52.246;21.054;2023-01-28T07:10:42;101397.00;;;1.57;95.07
30897;BME280;64229;52.246;21.054;2023-01-28T07:13:08;101395.69;;;1.38;95.90
30897;BME280;64229;52.246;21.054;2023-01-28T07:15:33;101397.25;;;1.47;96.34
30897;BME280;64229;52.246;21.054;2023-01-28T07:17:59;101400.47;;;1.57;95.49
30897;BME280;64229;52.246;21.054;2023-01-28T07:20:24;101399.00;;;1.55;95.57
30897;BME280;64229;52.246;21.054;2023-01-28T07:22:50;101400.94;;;1.61;95.64
30897;BME280;64229;52.246;21.054;2023-01-28T07:25:15;101400.94;;;1.61;96.20
30897;BME280;64229;52.246;21.054;2023-01-28T07:27:48;101397.75;;;1.65;95.10
30897;BME280;64229;52.246;21.054;2023-01-28T07:30:15;101403.22;;;1.64;95.58
30897;BME280;64229;52.246;21.054;2023-01-28T07:32:41;101403.66;;;1.67;95.82
30897;BME280;64229;52.246;21.054;2023-01-28T07:35:07;101404.03;;;1.64;95.23
30897;BME280;64229;52.246;21.054;2023-01-28T07:37:33;101413.56;;;1.65;96.21
30897;BME280;64229;52.246;21.054;2023-01-28T07:39:58;101409.28;;;1.64;95.18
30897;BME280;64229;52.246;21.054;2023-01-28T07:42:23;101412.84;;;1.71;95.15
30897;BME280;64229;52.246;21.054;2023-01-28T07:44:49;101409.56;;;1.69;95.71
30897;BME280;64229;52.246;21.054;2023-01-28T07:47:14;101404.13;;;1.71;95.86
30897;BME280;64229;52.246;21.054;2023-01-28T07:49:40;101413.31;;;1.75;95.01
30897;BME280;64229;52.246;21.054;2023-01-28T07:52:06;101410.66;;;1.75;94.53
30897;BME280;64229;52.246;21.054;2023-01-28T07:54:32;101417.13;;;1.72;94.33
30897;BME280;64229;52.246;21.054;2023-01-28T07:56:57;101417.94;;;1.73;93.98
30897;BME280;64229;52.246;21.054;2023-01-28T07:59:23;101402.66;;;1.68;94.12
30897;BME280;64229;52.246;21.054;2023-01-28T08:01:48;101409.34;;;1.56;94.41
30897;BME280;64229;52.246;21.054;2023-01-28T08:04:14;101409.53;;;1.55;95.92
30897;BME280;64229;52.246;21.054;2023-01-28T08:06:39;101410.00;;;1.58;94.83
30897;BME280;64229;52.246;21.054;2023-01-28T08:09:05;101406.34;;;1.59;95.30
30897;BME280;64229;52.246;21.054;2023-01-28T08:11:33;101405.84;;;1.64;95.50
30897;BME280;64229;52.246;21.054;2023-01-28T08:13:58;101405.78;;;1.72;93.95
30897;BME280;64229;52.246;21.054;2023-01-28T08:16:24;101399.31;;;1.74;93.46
30897;BME280;64229;52.246;21.054;2023-01-28T08:18:51;101405.41;;;1.75;93.55
30897;BME280;64229;52.246;21.054;2023-01-28T08:21:16;101404.78;;;1.73;93.06
30897;BME280;64229;52.246;21.054;2023-01-28T08:23:42;101407.47;;;1.65;94.20
30897;BME280;64229;52.246;21.054;2023-01-28T08:26:07;101409.75;;;1.68;93.15
30897;BME280;64229;52.246;21.054;2023-01-28T08:28:33;101410.66;;;1.60;94.31
30897;BME280;64229;52.246;21.054;2023-01-28T08:30:59;101409.28;;;1.64;94.34
30897;BME280;64229;52.246;21.054;2023-01-28T08:33:25;101400.75;;;1.62;93.91
30897;BME280;64229;52.246;21.054;2023-01-28T08:35:51;101404.84;;;1.65;93.46
30897;BME280;64229;52.246;21.054;2023-01-28T08:38:16;101411.47;;;1.61;94.23
30897;BME280;64229;52.246;21.054;2023-01-28T08:40:42;101406.66;;;1.64;93.58
30897;BME280;64229;52.246;21.054;2023-01-28T08:43:07;101406.22;;;1.61;93.96
30897;BME280;64229;52.246;21.054;2023-01-28T08:45:33;101411.53;;;1.53;95.01
30897;BME280;64229;52.246;21.054;2023-01-28T08:48:06;101411.16;;;1.56;94.53
30897;BME280;64229;52.246;21.054;2023-01-28T08:50:37;101406.22;;;1.61;93.83
30897;BME280;64229;52.246;21.054;2023-01-28T08:53:10;101407.28;;;1.66;93.84
30897;BME280;64229;52.246;21.054;2023-01-28T08:55:36;101408.47;;;1.64;93.40
30897;BME280;64229;52.246;21.054;2023-01-28T08:58:08;101404.97;;;1.49;93.87
30897;BME280;64229;52.246;21.054;2023-01-28T09:00:34;101409.53;;;1.55;94.69
30897;BME280;64229;52.246;21.054;2023-01-28T09:02:59;101412.34;;;1.53;94.88
30897;BME280;64229;52.246;21.054;2023-01-28T09:05:25;101416.78;;;1.53;95.61
30897;BME280;64229;52.246;21.054;2023-01-28T09:07:51;101417.63;;;1.53;95.22
30897;BME280;64229;52.246;21.054;2023-01-28T09:10:17;101423.88;;;1.52;94.35
30897;BME280;64229;52.246;21.054;2023-01-28T09:12:44;101426.59;;;1.59;94.17
30897;BME280;64229;52.246;21.054;2023-01-28T09:15:10;101430.03;;;1.59;94.26
30897;BME280;64229;52.246;21.054;2023-01-28T09:17:36;101428.06;;;1.61;94.53
30897;BME280;64229;52.246;21.054;2023-01-28T09:20:02;101434.50;;;1.59;94.23
30897;BME280;64229;52.246;21.054;2023-01-28T09:22:28;101437.31;;;1.57;94.85
30897;BME280;64229;52.246;21.054;2023-01-28T09:24:54;101436.31;;;1.58;94.86
30897;BME280;64229;52.246;21.054;2023-01-28T09:27:19;101427.69;;;1.50;95.03
30897;BME280;64229;52.246;21.054;2023-01-28T09:29:45;101433.34;;;1.61;94.33
30897;BME280;64229;52.246;21.054;2023-01-28T09:32:10;101430.34;;;1.64;94.92
30897;BME280;64229;52.246;21.054;2023-01-28T09:34:36;101435.78;;;1.63;95.00
30897;BME280;64229;52.246;21.054;2023-01-28T09:37:02;101434.66;;;1.57;95.70
30897;BME280;64229;52.246;21.054;2023-01-28T09:39:27;101444.31;;;1.65;94.04
30897;BME280;64229;52.246;21.054;2023-01-28T09:47:07;101429.53;;;1.64;93.17
30897;BME280;64229;52.246;21.054;2023-01-28T09:49:41;101443.56;;;1.56;94.49
30897;BME280;64229;52.246;21.054;2023-01-28T09:52:14;101441.56;;;1.58;94.65
30897;BME280;64229;52.246;21.054;2023-01-28T09:54:58;101435.31;;;1.59;94.14
30897;BME280;64229;52.246;21.054;2023-01-28T09:57:36;101431.41;;;1.55;94.02
30897;BME280;64229;52.246;21.054;2023-01-28T10:00:11;101422.31;;;1.43;94.76
30897;BME280;64229;52.246;21.054;2023-01-28T10:10:30;101423.97;;;1.59;94.27
30897;BME280;64229;52.246;21.054;2023-01-28T10:13:25;101424.09;;;1.65;93.90
30897;BME280;64229;52.246;21.054;2023-01-28T10:19:21;101422.44;;;1.64;93.55
30897;BME280;64229;52.246;21.054;2023-01-28T10:21:49;101423.91;;;1.67;93.79
30897;BME280;64229;52.246;21.054;2023-01-28T10:26:49;101427.06;;;1.62;93.67
30897;BME280;64229;52.246;21.054;2023-01-28T10:29:20;101422.91;;;1.68;94.67
30897;BME280;64229;52.246;21.054;2023-01-28T10:31:59;101415.31;;;1.73;92.71
30897;BME280;64229;52.246;21.054;2023-01-28T10:34:28;101417.94;;;1.73;92.55
30897;BME280;64229;52.246;21.054;2023-01-28T10:36:53;101420.56;;;1.73;93.08
30897;BME280;64229;52.246;21.054;2023-01-28T10:39:22;101421.91;;;1.69;92.67
30897;BME280;64229;52.246;21.054;2023-01-28T10:41:49;101412.47;;;1.60;93.57
30897;BME280;64229;52.246;21.054;2023-01-28T10:44:17;101419.44;;;1.67;93.99
30897;BME280;64229;52.246;21.054;2023-01-28T10:46:47;101417.94;;;1.73;93.18
30897;BME280;64229;52.246;21.054;2023-01-28T10:49:17;101407.59;;;1.71;92.92
30897;BME280;64229;52.246;21.054;2023-01-28T10:51:45;101408.75;;;1.69;93.73
30897;BME280;64229;52.246;21.054;2023-01-28T10:54:20;101405.84;;;1.79;93.72
30897;BME280;64229;52.246;21.054;2023-01-28T10:56:48;101416.50;;;1.85;93.25
30897;BME280;64229;52.246;21.054;2023-01-28T11:01:46;101404.84;;;1.80;94.31
30897;BME280;64229;52.246;21.054;2023-01-28T11:04:33;101413.13;;;1.91;92.30
30897;BME280;64229;52.246;21.054;2023-01-28T11:07:04;101410.88;;;1.88;91.22
30897;BME280;64229;52.246;21.054;2023-01-28T11:09:33;101407.97;;;1.83;92.98
30897;BME280;64229;52.246;21.054;2023-01-28T11:12:11;101385.28;;;1.82;92.75
30897;BME280;64229;52.246;21.054;2023-01-28T11:14:36;101395.25;;;1.87;92.06
30897;BME280;64229;52.246;21.054;2023-01-28T11:17:02;101394.81;;;1.83;92.92
30897;BME280;64229;52.246;21.054;2023-01-28T11:19:33;101381.53;;;1.77;91.64
30897;BME280;64229;52.246;21.054;2023-01-28T11:22:00;101389.53;;;1.83;92.40
30897;BME280;64229;52.246;21.054;2023-01-28T11:24:31;101393.81;;;1.84;92.10
30897;BME280;64229;52.246;21.054;2023-01-28T11:27:10;101394.81;;;1.83;92.16
30897;BME280;64229;52.246;21.054;2023-01-28T11:29:39;101395.06;;;1.88;91.40
30897;BME280;64229;52.246;21.054;2023-01-28T11:32:16;101391.91;;;1.93;91.30
30897;BME280;64229;52.246;21.054;2023-01-28T11:34:51;101385.00;;;1.92;91.20
30897;BME280;64229;52.246;21.054;2023-01-28T11:37:19;101376.94;;;1.93;90.73
30897;BME280;64229;52.246;21.054;2023-01-28T11:39:46;101376.63;;;1.88;91.16
30897;BME280;64229;52.246;21.054;2023-01-28T11:42:17;101381.34;;;1.78;91.34
30897;BME280;64229;52.246;21.054;2023-01-28T11:44:43;101377.19;;;1.84;91.03
30897;BME280;64229;52.246;21.054;2023-01-28T11:47:22;101377.00;;;1.85;91.68
30897;BME280;64229;52.246;21.054;2023-01-28T12:03:34;101382.47;;;1.84;90.81
30897;BME280;64229;52.246;21.054;2023-01-28T12:08:24;101376.75;;;1.95;91.05
30897;BME280;64229;52.246;21.054;2023-01-28T12:16:44;101374.75;;;1.97;92.25
30897;BME280;64229;52.246;21.054;2023-01-28T12:30:36;101370.09;;;1.99;89.70
30897;BME280;64229;52.246;21.054;2023-01-28T12:37:00;101375.53;;;1.68;89.44
30897;BME280;64229;52.246;21.054;2023-01-28T12:41:46;101369.28;;;1.84;89.61
30897;BME280;64229;52.246;21.054;2023-01-28T12:44:27;101363.41;;;1.82;91.99
30897;BME280;64229;52.246;21.054;2023-01-28T12:47:04;101365.22;;;1.81;91.87
30897;BME280;64229;52.246;21.054;2023-01-28T12:49:39;101367.56;;;1.91;90.20
30897;BME280;64229;52.246;21.054;2023-01-28T12:52:27;101373.63;;;1.91;89.03
30897;BME280;64229;52.246;21.054;2023-01-28T12:54:58;101373.81;;;1.90;89.13
30897;BME280;64229;52.246;21.054;2023-01-28T12:57:28;101371.38;;;1.73;89.33
30897;BME280;64229;52.246;21.054;2023-01-28T13:00:01;101381.16;;;1.80;88.93
30897;BME280;64229;52.246;21.054;2023-01-28T13:02:41;101381.09;;;1.88;88.85
30897;BME280;64229;52.246;21.054;2023-01-28T13:10:18;101377.06;;;1.62;89.67
30897;BME280;64229;52.246;21.054;2023-01-28T13:12:47;101358.41;;;1.72;90.07
30897;BME280;64229;52.246;21.054;2023-01-28T13:15:16;101370.19;;;1.76;89.37
30897;BME280;64229;52.246;21.054;2023-01-28T13:18:00;101379.44;;;1.72;90.35
30897;BME280;64229;52.246;21.054;2023-01-28T13:20:48;101372.91;;;1.68;88.91
30897;BME280;64229;52.246;21.054;2023-01-28T13:28:42;101375.75;;;1.81;89.45
30897;BME280;64229;52.246;21.054;2023-01-28T13:31:13;101382.09;;;1.87;88.21
30897;BME280;64229;52.246;21.054;2023-01-28T13:33:46;101372.56;;;1.86;88.48
30897;BME280;64229;52.246;21.054;2023-01-28T13:36:33;101376.00;;;1.86;87.42
30897;BME280;64229;52.246;21.054;2023-01-28T13:42:09;101373.81;;;1.90;88.59
30897;BME280;64229;52.246;21.054;2023-01-28T13:44:36;101376.94;;;1.93;87.96
30897;BME280;64229;52.246;21.054;2023-01-28T13:49:36;101385.16;;;1.90;88.34
30897;BME280;64229;52.246;21.054;2023-01-28T13:54:45;101383.59;;;1.66;89.46
30897;BME280;64229;52.246;21.054;2023-01-28T14:05:49;101379.53;;;1.79;89.40
30897;BME280;64229;52.246;21.054;2023-01-28T14:18:59;101347.81;;;1.42;88.38
30897;BME280;64229;52.246;21.054;2023-01-28T14:21:27;101374.19;;;1.72;88.56
30897;BME280;64229;52.246;21.054;2023-01-28T14:23:56;101386.53;;;1.71;88.19
30897;BME280;64229;52.246;21.054;2023-01-28T14:31:44;101379.88;;;1.61;88.47
30897;BME280;64229;52.246;21.054;2023-01-28T14:34:26;101378.78;;;1.70;88.94
30897;BME280;64229;52.246;21.054;2023-01-28T14:36:57;101375.63;;;1.74;88.52
30897;BME280;64229;52.246;21.054;2023-01-28T14:39:27;101380.91;;;1.74;88.61
30897;BME280;64229;52.246;21.054;2023-01-28T14:41:54;101376.91;;;1.64;89.02
30897;BME280;64229;52.246;21.054;2023-01-28T14:44:27;101377.81;;;1.71;89.04
30897;BME280;64229;52.246;21.054;2023-01-28T14:50:36;101382.72;;;1.74;88.18
30897;BME280;64229;52.246;21.054;2023-01-28T14:55:56;101380.44;;;1.71;86.72
30897;BME280;64229;52.246;21.054;2023-01-28T14:58:32;101385.06;;;1.69;87.47
30897;BME280;64229;52.246;21.054;2023-01-28T15:01:00;101377.34;;;1.67;87.05
30897;BME280;64229;52.246;21.054;2023-01-28T15:03:27;101384.91;;;1.70;86.84
30897;BME280;64229;52.246;21.054;2023-01-28T15:06:06;101377.22;;;1.46;87.18
30897;BME280;64229;52.246;21.054;2023-01-28T15:08:31;101380.22;;;1.43;87.66
30897;BME280;64229;52.246;21.054;2023-01-28T15:10:57;101388.41;;;1.63;88.27